sensor_id;sensor_type;location;lat;lon;timestamp;P1;durP1;ratioP1;P2;durP2;ratioP2
50102;SDS011;35993;52.604;10.078;2023-05-07T00:00:41;14.70;;;8.57;;
50102;SDS011;35993;52.604;10.078;2023-05-07T00:03:07;19.05;;;9.35;;
50102;SDS011;35993;52.604;10.078;2023-05-07T00:05:33;14.90;;;8.57;;
50102;SDS011;35993;52.604;10.078;2023-05-07T00:07:58;13.88;;;8.40;;
50102;SDS011;35993;52.604;10.078;2023-05-07T00:10:24;14.52;;;8.98;;
50102;SDS011;35993;52.604;10.078;2023-05-07T00:12:50;13.52;;;8.63;;
50102;SDS011;35993;52.604;10.078;2023-05-07T00:15:16;13.60;;;8.98;;
50102;SDS011;35993;52.604;10.078;2023-05-07T00:17:41;14.00;;;8.75;;
50102;SDS011;35993;52.604;10.078;2023-05-07T00:20:07;15.07;;;8.85;;
50102;SDS011;35993;52.604;10.078;2023-05-07T00:22:33;16.15;;;8.90;;
50102;SDS011;35993;52.604;10.078;2023-05-07T00:24:58;13.52;;;8.60;;
50102;SDS011;35993;52.604;10.078;2023-05-07T00:27:25;13.15;;;8.38;;
50102;SDS011;35993;52.604;10.078;2023-05-07T00:29:51;13.90;;;8.48;;
50102;SDS011;35993;52.604;10.078;2023-05-07T00:32:16;13.70;;;8.60;;
50102;SDS011;35993;52.604;10.078;2023-05-07T00:34:42;16.73;;;9.32;;
50102;SDS011;35993;52.604;10.078;2023-05-07T00:37:08;14.88;;;9.00;;
50102;SDS011;35993;52.604;10.078;2023-05-07T00:39:34;15.50;;;9.88;;
50102;SDS011;35993;52.604;10.078;2023-05-07T00:42:00;18.05;;;9.57;;
50102;SDS011;35993;52.604;10.078;2023-05-07T00:44:26;15.75;;;10.27;;
50102;SDS011;35993;52.604;10.078;2023-05-07T00:46:52;17.75;;;10.07;;
50102;SDS011;35993;52.604;10.078;2023-05-07T00:49:18;17.45;;;10.32;;
50102;SDS011;35993;52.604;10.078;2023-05-07T00:51:45;16.55;;;10.48;;
50102;SDS011;35993;52.604;10.078;2023-05-07T00:54:11;17.83;;;11.30;;
50102;SDS011;35993;52.604;10.078;2023-05-07T00:56:38;16.90;;;10.75;;
50102;SDS011;35993;52.604;10.078;2023-05-07T00:59:05;19.00;;;10.90;;
50102;SDS011;35993;52.604;10.078;2023-05-07T01:01:31;17.25;;;10.23;;
50102;SDS011;35993;52.604;10.078;2023-05-07T01:03:57;17.98;;;10.40;;
50102;SDS011;35993;52.604;10.078;2023-05-07T01:06:23;15.43;;;9.40;;
50102;SDS011;35993;52.604;10.078;2023-05-07T01:08:50;15.35;;;9.85;;
50102;SDS011;35993;52.604;10.078;2023-05-07T01:11:18;14.77;;;10.07;;
50102;SDS011;35993;52.604;10.078;2023-05-07T01:13:46;15.52;;;9.45;;
50102;SDS011;35993;52.604;10.078;2023-05-07T01:16:12;14.77;;;9.00;;
50102;SDS011;35993;52.604;10.078;2023-05-07T01:18:38;14.55;;;9.15;;
50102;SDS011;35993;52.604;10.078;2023-05-07T01:21:04;14.75;;;9.93;;
50102;SDS011;35993;52.604;10.078;2023-05-07T01:23:30;16.02;;;9.68;;
50102;SDS011;35993;52.604;10.078;2023-05-07T01:25:56;15.75;;;10.30;;
50102;SDS011;35993;52.604;10.078;2023-05-07T01:28:24;14.45;;;9.68;;
50102;SDS011;35993;52.604;10.078;2023-05-07T01:30:54;14.05;;;8.82;;
50102;SDS011;35993;52.604;10.078;2023-05-07T01:35:48;13.27;;;8.10;;
50102;SDS011;35993;52.604;10.078;2023-05-07T01:38:18;12.45;;;8.05;;
50102;SDS011;35993;52.604;10.078;2023-05-07T01:40:45;12.90;;;8.73;;
50102;SDS011;35993;52.604;10.078;2023-05-07T01:43:11;10.73;;;7.95;;
50102;SDS011;35993;52.604;10.078;2023-05-07T01:45:37;14.73;;;9.23;;
50102;SDS011;35993;52.604;10.078;2023-05-07T01:48:03;14.85;;;8.60;;
50102;SDS011;35993;52.604;10.078;2023-05-07T01:50:29;14.00;;;8.35;;
50102;SDS011;35993;52.604;10.078;2023-05-07T01:52:56;11.40;;;7.90;;
50102;SDS011;35993;52.604;10.078;2023-05-07T01:55:22;11.10;;;7.60;;
50102;SDS011;35993;52.604;10.078;2023-05-07T01:57:48;12.43;;;7.93;;
50102;SDS011;35993;52.604;10.078;2023-05-07T02:00:14;11.00;;;7.78;;
50102;SDS011;35993;52.604;10.078;2023-05-07T02:02:40;10.70;;;7.35;;
50102;SDS011;35993;52.604;10.078;2023-05-07T02:05:12;10.23;;;7.07;;
50102;SDS011;35993;52.604;10.078;2023-05-07T02:07:39;10.25;;;7.32;;
50102;SDS011;35993;52.604;10.078;2023-05-07T02:10:05;9.13;;;6.60;;
50102;SDS011;35993;52.604;10.078;2023-05-07T02:12:31;10.23;;;7.00;;
50102;SDS011;35993;52.604;10.078;2023-05-07T02:14:57;9.10;;;6.70;;
50102;SDS011;35993;52.604;10.078;2023-05-07T02:17:22;10.43;;;7.65;;
50102;SDS011;35993;52.604;10.078;2023-05-07T02:19:48;9.52;;;6.80;;
50102;SDS011;35993;52.604;10.078;2023-05-07T02:22:13;10.63;;;7.03;;
50102;SDS011;35993;52.604;10.078;2023-05-07T02:24:39;10.90;;;7.18;;
50102;SDS011;35993;52.604;10.078;2023-05-07T02:27:04;11.15;;;7.13;;
50102;SDS011;35993;52.604;10.078;2023-05-07T02:29:30;10.20;;;7.22;;
50102;SDS011;35993;52.604;10.078;2023-05-07T02:31:56;11.13;;;7.60;;
50102;SDS011;35993;52.604;10.078;2023-05-07T02:34:21;11.23;;;7.50;;
50102;SDS011;35993;52.604;10.078;2023-05-07T02:36:47;11.57;;;7.65;;
50102;SDS011;35993;52.604;10.078;2023-05-07T02:39:16;9.60;;;7.22;;
50102;SDS011;35993;52.604;10.078;2023-05-07T02:41:42;10.55;;;7.53;;
50102;SDS011;35993;52.604;10.078;2023-05-07T02:44:07;9.80;;;7.15;;
50102;SDS011;35993;52.604;10.078;2023-05-07T02:46:33;9.45;;;6.75;;
50102;SDS011;35993;52.604;10.078;2023-05-07T02:49:03;11.25;;;6.63;;
50102;SDS011;35993;52.604;10.078;2023-05-07T02:51:29;9.70;;;6.80;;
50102;SDS011;35993;52.604;10.078;2023-05-07T02:53:58;9.63;;;6.82;;
50102;SDS011;35993;52.604;10.078;2023-05-07T02:56:25;9.40;;;6.88;;
50102;SDS011;35993;52.604;10.078;2023-05-07T02:58:51;11.75;;;7.00;;
50102;SDS011;35993;52.604;10.078;2023-05-07T03:01:19;10.15;;;6.70;;
50102;SDS011;35993;52.604;10.078;2023-05-07T03:03:52;11.13;;;7.00;;
50102;SDS011;35993;52.604;10.078;2023-05-07T03:06:18;9.93;;;6.32;;
50102;SDS011;35993;52.604;10.078;2023-05-07T03:08:43;10.82;;;6.85;;
50102;SDS011;35993;52.604;10.078;2023-05-07T03:11:09;11.20;;;7.07;;
50102;SDS011;35993;52.604;10.078;2023-05-07T03:13:35;10.45;;;6.60;;
50102;SDS011;35993;52.604;10.078;2023-05-07T03:16:00;9.60;;;6.28;;
50102;SDS011;35993;52.604;10.078;2023-05-07T03:18:26;9.90;;;6.40;;
50102;SDS011;35993;52.604;10.078;2023-05-07T03:20:52;10.82;;;7.18;;
50102;SDS011;35993;52.604;10.078;2023-05-07T03:23:18;9.38;;;6.68;;
50102;SDS011;35993;52.604;10.078;2023-05-07T03:25:43;12.27;;;7.63;;
50102;SDS011;35993;52.604;10.078;2023-05-07T03:28:09;10.38;;;7.25;;
50102;SDS011;35993;52.604;10.078;2023-05-07T03:30:43;10.27;;;6.80;;
50102;SDS011;35993;52.604;10.078;2023-05-07T03:33:09;9.40;;;6.82;;
50102;SDS011;35993;52.604;10.078;2023-05-07T03:35:35;9.27;;;7.03;;
50102;SDS011;35993;52.604;10.078;2023-05-07T03:38:00;10.27;;;7.03;;
50102;SDS011;35993;52.604;10.078;2023-05-07T03:40:29;11.30;;;7.05;;
50102;SDS011;35993;52.604;10.078;2023-05-07T03:42:55;9.73;;;6.70;;
50102;SDS011;35993;52.604;10.078;2023-05-07T03:45:23;9.90;;;7.03;;
50102;SDS011;35993;52.604;10.078;2023-05-07T03:47:57;9.35;;;6.78;;
50102;SDS011;35993;52.604;10.078;2023-05-07T03:50:23;10.40;;;6.85;;
50102;SDS011;35993;52.604;10.078;2023-05-07T03:52:48;9.77;;;6.68;;
50102;SDS011;35993;52.604;10.078;2023-05-07T03:55:16;10.05;;;6.65;;
50102;SDS011;35993;52.604;10.078;2023-05-07T03:57:47;11.20;;;7.15;;
50102;SDS011;35993;52.604;10.078;2023-05-07T04:00:13;8.82;;;6.30;;
50102;SDS011;35993;52.604;10.078;2023-05-07T04:02:48;10.23;;;7.03;;
50102;SDS011;35993;52.604;10.078;2023-05-07T04:05:18;11.43;;;6.63;;
50102;SDS011;35993;52.604;10.078;2023-05-07T04:07:47;8.73;;;6.43;;
50102;SDS011;35993;52.604;10.078;2023-05-07T04:10:16;8.98;;;7.07;;
50102;SDS011;35993;52.604;10.078;2023-05-07T04:12:43;10.35;;;7.25;;
50102;SDS011;35993;52.604;10.078;2023-05-07T04:15:14;10.32;;;6.60;;
50102;SDS011;35993;52.604;10.078;2023-05-07T04:17:40;9.88;;;7.22;;
50102;SDS011;35993;52.604;10.078;2023-05-07T04:20:12;10.80;;;6.93;;
50102;SDS011;35993;52.604;10.078;2023-05-07T04:22:40;9.50;;;6.70;;
50102;SDS011;35993;52.604;10.078;2023-05-07T04:25:06;10.98;;;6.85;;
50102;SDS011;35993;52.604;10.078;2023-05-07T04:27:35;10.57;;;6.78;;
50102;SDS011;35993;52.604;10.078;2023-05-07T04:30:02;10.73;;;7.35;;
50102;SDS011;35993;52.604;10.078;2023-05-07T04:32:33;10.10;;;7.20;;
50102;SDS011;35993;52.604;10.078;2023-05-07T04:34:58;10.32;;;7.50;;
50102;SDS011;35993;52.604;10.078;2023-05-07T04:37:25;9.93;;;6.93;;
50102;SDS011;35993;52.604;10.078;2023-05-07T04:39:52;9.77;;;7.20;;
50102;SDS011;35993;52.604;10.078;2023-05-07T04:42:17;11.15;;;7.55;;
50102;SDS011;35993;52.604;10.078;2023-05-07T04:44:44;9.52;;;6.93;;
50102;SDS011;35993;52.604;10.078;2023-05-07T04:47:11;12.43;;;7.28;;
50102;SDS011;35993;52.604;10.078;2023-05-07T04:49:38;10.93;;;7.43;;
50102;SDS011;35993;52.604;10.078;2023-05-07T04:52:04;10.65;;;7.65;;
50102;SDS011;35993;52.604;10.078;2023-05-07T04:54:29;11.30;;;7.55;;
50102;SDS011;35993;52.604;10.078;2023-05-07T04:56:55;9.60;;;7.25;;
50102;SDS011;35993;52.604;10.078;2023-05-07T04:59:21;10.48;;;6.68;;
50102;SDS011;35993;52.604;10.078;2023-05-07T05:01:49;8.20;;;6.57;;
50102;SDS011;35993;52.604;10.078;2023-05-07T05:04:14;12.20;;;7.10;;
50102;SDS011;35993;52.604;10.078;2023-05-07T05:06:40;10.15;;;6.93;;
50102;SDS011;35993;52.604;10.078;2023-05-07T05:09:07;9.07;;;6.47;;
50102;SDS011;35993;52.604;10.078;2023-05-07T05:11:33;9.45;;;6.63;;
50102;SDS011;35993;52.604;10.078;2023-05-07T05:13:59;9.23;;;6.57;;
50102;SDS011;35993;52.604;10.078;2023-05-07T05:16:25;9.27;;;6.30;;
50102;SDS011;35993;52.604;10.078;2023-05-07T05:18:51;8.43;;;6.18;;
50102;SDS011;35993;52.604;10.078;2023-05-07T05:21:19;9.65;;;6.22;;
50102;SDS011;35993;52.604;10.078;2023-05-07T05:23:48;8.50;;;6.28;;
50102;SDS011;35993;52.604;10.078;2023-05-07T05:26:18;8.75;;;6.03;;
50102;SDS011;35993;52.604;10.078;2023-05-07T05:28:44;9.07;;;6.30;;
50102;SDS011;35993;52.604;10.078;2023-05-07T05:31:10;9.07;;;6.60;;
50102;SDS011;35993;52.604;10.078;2023-05-07T05:33:36;8.63;;;6.10;;
50102;SDS011;35993;52.604;10.078;2023-05-07T05:36:03;9.30;;;5.85;;
50102;SDS011;35993;52.604;10.078;2023-05-07T05:38:29;10.50;;;6.82;;
50102;SDS011;35993;52.604;10.078;2023-05-07T05:40:55;8.38;;;6.25;;
50102;SDS011;35993;52.604;10.078;2023-05-07T05:43:21;9.90;;;6.57;;
50102;SDS011;35993;52.604;10.078;2023-05-07T05:45:47;8.27;;;5.82;;
50102;SDS011;35993;52.604;10.078;2023-05-07T05:48:13;7.93;;;6.13;;
50102;SDS011;35993;52.604;10.078;2023-05-07T05:50:41;8.77;;;6.47;;
50102;SDS011;35993;52.604;10.078;2023-05-07T05:53:08;8.18;;;5.75;;
50102;SDS011;35993;52.604;10.078;2023-05-07T05:55:33;9.43;;;6.40;;
50102;SDS011;35993;52.604;10.078;2023-05-07T05:58:02;8.77;;;6.25;;
50102;SDS011;35993;52.604;10.078;2023-05-07T06:00:30;7.85;;;6.22;;
50102;SDS011;35993;52.604;10.078;2023-05-07T06:03:01;7.95;;;5.80;;
50102;SDS011;35993;52.604;10.078;2023-05-07T06:05:27;9.15;;;6.35;;
50102;SDS011;35993;52.604;10.078;2023-05-07T06:07:54;8.48;;;6.03;;
50102;SDS011;35993;52.604;10.078;2023-05-07T06:10:20;8.02;;;5.85;;
50102;SDS011;35993;52.604;10.078;2023-05-07T06:12:45;8.20;;;6.03;;
50102;SDS011;35993;52.604;10.078;2023-05-07T06:15:12;7.22;;;5.75;;
50102;SDS011;35993;52.604;10.078;2023-05-07T06:17:39;8.32;;;6.25;;
50102;SDS011;35993;52.604;10.078;2023-05-07T06:20:06;8.27;;;5.88;;
50102;SDS011;35993;52.604;10.078;2023-05-07T06:22:32;9.40;;;5.82;;
50102;SDS011;35993;52.604;10.078;2023-05-07T06:24:58;8.27;;;5.93;;
50102;SDS011;35993;52.604;10.078;2023-05-07T06:27:24;8.82;;;5.70;;
50102;SDS011;35993;52.604;10.078;2023-05-07T06:29:50;7.43;;;5.68;;
50102;SDS011;35993;52.604;10.078;2023-05-07T06:32:16;8.73;;;5.90;;
50102;SDS011;35993;52.604;10.078;2023-05-07T06:34:44;9.27;;;5.68;;
50102;SDS011;35993;52.604;10.078;2023-05-07T06:37:10;8.82;;;6.03;;
50102;SDS011;35993;52.604;10.078;2023-05-07T06:39:47;9.63;;;6.40;;
50102;SDS011;35993;52.604;10.078;2023-05-07T06:42:13;8.38;;;6.00;;
50102;SDS011;35993;52.604;10.078;2023-05-07T06:44:41;7.75;;;5.88;;
50102;SDS011;35993;52.604;10.078;2023-05-07T06:47:10;9.27;;;6.30;;
50102;SDS011;35993;52.604;10.078;2023-05-07T06:49:38;9.10;;;7.13;;
50102;SDS011;35993;52.604;10.078;2023-05-07T06:52:03;9.18;;;6.60;;
50102;SDS011;35993;52.604;10.078;2023-05-07T06:54:29;9.52;;;7.00;;
50102;SDS011;35993;52.604;10.078;2023-05-07T06:56:55;9.48;;;6.18;;
50102;SDS011;35993;52.604;10.078;2023-05-07T06:59:23;8.65;;;6.78;;
50102;SDS011;35993;52.604;10.078;2023-05-07T07:01:49;10.20;;;7.32;;
50102;SDS011;35993;52.604;10.078;2023-05-07T07:04:15;8.95;;;6.82;;
50102;SDS011;35993;52.604;10.078;2023-05-07T07:06:43;11.45;;;7.22;;
50102;SDS011;35993;52.604;10.078;2023-05-07T07:09:11;10.20;;;7.03;;
50102;SDS011;35993;52.604;10.078;2023-05-07T07:11:37;9.15;;;6.72;;
50102;SDS011;35993;52.604;10.078;2023-05-07T07:14:03;11.27;;;7.07;;
50102;SDS011;35993;52.604;10.078;2023-05-07T07:16:33;9.93;;;6.60;;
50102;SDS011;35993;52.604;10.078;2023-05-07T07:18:58;10.20;;;7.05;;
50102;SDS011;35993;52.604;10.078;2023-05-07T07:21:24;11.48;;;7.32;;
50102;SDS011;35993;52.604;10.078;2023-05-07T07:23:51;10.00;;;7.53;;
50102;SDS011;35993;52.604;10.078;2023-05-07T07:26:18;10.00;;;7.05;;
50102;SDS011;35993;52.604;10.078;2023-05-07T07:28:44;10.55;;;7.15;;
50102;SDS011;35993;52.604;10.078;2023-05-07T07:31:11;10.50;;;7.72;;
50102;SDS011;35993;52.604;10.078;2023-05-07T07:33:37;11.63;;;7.75;;
50102;SDS011;35993;52.604;10.078;2023-05-07T07:36:03;10.95;;;7.85;;
50102;SDS011;35993;52.604;10.078;2023-05-07T07:38:30;11.90;;;8.35;;
50102;SDS011;35993;52.604;10.078;2023-05-07T07:40:56;10.50;;;7.55;;
50102;SDS011;35993;52.604;10.078;2023-05-07T07:43:22;10.55;;;7.80;;
50102;SDS011;35993;52.604;10.078;2023-05-07T07:45:48;10.02;;;7.03;;
50102;SDS011;35993;52.604;10.078;2023-05-07T07:48:14;9.73;;;7.13;;
50102;SDS011;35993;52.604;10.078;2023-05-07T07:50:39;12.35;;;7.45;;
50102;SDS011;35993;52.604;10.078;2023-05-07T07:53:06;11.38;;;7.55;;
50102;SDS011;35993;52.604;10.078;2023-05-07T07:55:32;9.55;;;7.03;;
50102;SDS011;35993;52.604;10.078;2023-05-07T07:57:59;10.70;;;6.85;;
50102;SDS011;35993;52.604;10.078;2023-05-07T08:00:25;11.38;;;7.82;;
50102;SDS011;35993;52.604;10.078;2023-05-07T08:02:54;11.95;;;7.63;;
50102;SDS011;35993;52.604;10.078;2023-05-07T08:05:25;17.03;;;8.00;;
50102;SDS011;35993;52.604;10.078;2023-05-07T08:07:51;12.98;;;7.53;;
50102;SDS011;35993;52.604;10.078;2023-05-07T08:10:21;10.48;;;7.68;;
50102;SDS011;35993;52.604;10.078;2023-05-07T08:12:49;10.05;;;7.47;;
50102;SDS011;35993;52.604;10.078;2023-05-07T08:15:15;11.98;;;7.97;;
50102;SDS011;35993;52.604;10.078;2023-05-07T08:17:41;13.25;;;7.95;;
50102;SDS011;35993;52.604;10.078;2023-05-07T08:20:08;12.93;;;8.48;;
50102;SDS011;35993;52.604;10.078;2023-05-07T08:22:35;10.63;;;7.90;;
50102;SDS011;35993;52.604;10.078;2023-05-07T08:25:01;13.00;;;7.78;;
50102;SDS011;35993;52.604;10.078;2023-05-07T08:27:27;11.40;;;7.78;;
50102;SDS011;35993;52.604;10.078;2023-05-07T08:29:53;11.25;;;7.57;;
50102;SDS011;35993;52.604;10.078;2023-05-07T08:32:20;10.57;;;7.93;;
50102;SDS011;35993;52.604;10.078;2023-05-07T08:34:47;9.82;;;7.32;;
50102;SDS011;35993;52.604;10.078;2023-05-07T08:37:13;10.70;;;7.18;;
50102;SDS011;35993;52.604;10.078;2023-05-07T08:39:39;13.27;;;7.80;;
50102;SDS011;35993;52.604;10.078;2023-05-07T08:42:11;10.80;;;7.15;;
50102;SDS011;35993;52.604;10.078;2023-05-07T08:44:41;9.77;;;5.85;;
50102;SDS011;35993;52.604;10.078;2023-05-07T08:47:13;11.60;;;6.30;;
50102;SDS011;35993;52.604;10.078;2023-05-07T08:49:39;8.25;;;5.90;;
50102;SDS011;35993;52.604;10.078;2023-05-07T08:52:06;7.60;;;5.70;;
50102;SDS011;35993;52.604;10.078;2023-05-07T08:54:32;8.55;;;6.20;;
50102;SDS011;35993;52.604;10.078;2023-05-07T08:56:59;7.68;;;5.20;;
50102;SDS011;35993;52.604;10.078;2023-05-07T08:59:26;8.55;;;4.68;;
50102;SDS011;35993;52.604;10.078;2023-05-07T09:01:52;7.38;;;5.45;;
50102;SDS011;35993;52.604;10.078;2023-05-07T09:04:18;7.43;;;5.40;;
50102;SDS011;35993;52.604;10.078;2023-05-07T09:06:45;8.45;;;4.80;;
50102;SDS011;35993;52.604;10.078;2023-05-07T09:09:14;7.40;;;4.75;;
50102;SDS011;35993;52.604;10.078;2023-05-07T09:11:42;9.57;;;5.20;;
50102;SDS011;35993;52.604;10.078;2023-05-07T09:14:09;7.90;;;5.57;;
50102;SDS011;35993;52.604;10.078;2023-05-07T09:16:39;7.60;;;5.50;;
50102;SDS011;35993;52.604;10.078;2023-05-07T09:19:05;6.28;;;4.95;;
50102;SDS011;35993;52.604;10.078;2023-05-07T09:21:30;8.45;;;5.50;;
50102;SDS011;35993;52.604;10.078;2023-05-07T09:23:59;6.10;;;4.55;;
50102;SDS011;35993;52.604;10.078;2023-05-07T09:26:33;6.43;;;5.05;;
50102;SDS011;35993;52.604;10.078;2023-05-07T09:29:01;8.00;;;4.85;;
50102;SDS011;35993;52.604;10.078;2023-05-07T09:31:28;7.88;;;5.60;;
50102;SDS011;35993;52.604;10.078;2023-05-07T09:33:54;7.40;;;5.20;;
50102;SDS011;35993;52.604;10.078;2023-05-07T09:36:22;7.15;;;5.18;;
50102;SDS011;35993;52.604;10.078;2023-05-07T09:38:48;6.00;;;4.60;;
50102;SDS011;35993;52.604;10.078;2023-05-07T09:41:16;6.25;;;4.78;;
50102;SDS011;35993;52.604;10.078;2023-05-07T09:44:14;6.55;;;4.78;;
50102;SDS011;35993;52.604;10.078;2023-05-07T09:46:44;6.82;;;5.15;;
50102;SDS011;35993;52.604;10.078;2023-05-07T09:49:21;9.07;;;5.22;;
50102;SDS011;35993;52.604;10.078;2023-05-07T09:51:52;6.68;;;4.95;;
50102;SDS011;35993;52.604;10.078;2023-05-07T09:54:20;10.27;;;5.57;;
50102;SDS011;35993;52.604;10.078;2023-05-07T09:56:49;7.40;;;4.97;;
50102;SDS011;35993;52.604;10.078;2023-05-07T09:59:18;7.05;;;4.93;;
50102;SDS011;35993;52.604;10.078;2023-05-07T10:01:46;7.05;;;4.53;;
50102;SDS011;35993;52.604;10.078;2023-05-07T10:04:15;6.15;;;4.60;;
50102;SDS011;35993;52.604;10.078;2023-05-07T10:06:43;6.25;;;4.40;;
50102;SDS011;35993;52.604;10.078;2023-05-07T10:09:10;6.00;;;4.70;;
50102;SDS011;35993;52.604;10.078;2023-05-07T10:11:39;5.95;;;4.88;;
50102;SDS011;35993;52.604;10.078;2023-05-07T10:14:06;6.75;;;4.50;;
50102;SDS011;35993;52.604;10.078;2023-05-07T10:16:33;5.95;;;4.60;;
50102;SDS011;35993;52.604;10.078;2023-05-07T10:19:09;6.28;;;4.78;;
50102;SDS011;35993;52.604;10.078;2023-05-07T10:21:40;5.43;;;4.15;;
50102;SDS011;35993;52.604;10.078;2023-05-07T10:24:19;5.97;;;4.00;;
50102;SDS011;35993;52.604;10.078;2023-05-07T10:26:51;4.65;;;3.85;;
50102;SDS011;35993;52.604;10.078;2023-05-07T10:29:39;5.38;;;3.83;;
50102;SDS011;35993;52.604;10.078;2023-05-07T10:35:09;7.38;;;4.63;;
50102;SDS011;35993;52.604;10.078;2023-05-07T10:37:39;6.05;;;4.57;;
50102;SDS011;35993;52.604;10.078;2023-05-07T10:40:06;5.55;;;4.43;;
50102;SDS011;35993;52.604;10.078;2023-05-07T10:42:33;7.57;;;4.93;;
50102;SDS011;35993;52.604;10.078;2023-05-07T10:45:10;7.45;;;5.13;;
50102;SDS011;35993;52.604;10.078;2023-05-07T10:48:40;6.10;;;4.65;;
50102;SDS011;35993;52.604;10.078;2023-05-07T10:50:45;6.82;;;5.18;;
50102;SDS011;35993;52.604;10.078;2023-05-07T10:55:48;6.30;;;4.53;;
50102;SDS011;35993;52.604;10.078;2023-05-07T10:58:26;8.95;;;5.35;;
50102;SDS011;35993;52.604;10.078;2023-05-07T11:01:02;6.97;;;5.18;;
50102;SDS011;35993;52.604;10.078;2023-05-07T11:03:34;6.82;;;4.90;;
50102;SDS011;35993;52.604;10.078;2023-05-07T11:06:14;6.78;;;5.20;;
50102;SDS011;35993;52.604;10.078;2023-05-07T11:13:50;6.45;;;5.25;;
50102;SDS011;35993;52.604;10.078;2023-05-07T11:16:36;7.43;;;5.18;;
50102;SDS011;35993;52.604;10.078;2023-05-07T11:19:15;7.80;;;5.32;;
50102;SDS011;35993;52.604;10.078;2023-05-07T11:21:45;6.28;;;4.93;;
50102;SDS011;35993;52.604;10.078;2023-05-07T11:24:24;6.43;;;5.18;;
50102;SDS011;35993;52.604;10.078;2023-05-07T11:27:00;6.85;;;4.88;;
50102;SDS011;35993;52.604;10.078;2023-05-07T11:29:28;7.13;;;5.47;;
50102;SDS011;35993;52.604;10.078;2023-05-07T11:31:59;6.45;;;4.93;;
50102;SDS011;35993;52.604;10.078;2023-05-07T11:34:30;6.90;;;5.15;;
50102;SDS011;35993;52.604;10.078;2023-05-07T11:36:57;6.72;;;5.30;;
50102;SDS011;35993;52.604;10.078;2023-05-07T11:39:36;6.72;;;5.53;;
50102;SDS011;35993;52.604;10.078;2023-05-07T11:42:01;7.00;;;4.40;;
50102;SDS011;35993;52.604;10.078;2023-05-07T11:47:25;8.02;;;6.43;;
50102;SDS011;35993;52.604;10.078;2023-05-07T11:49:55;8.02;;;6.03;;
50102;SDS011;35993;52.604;10.078;2023-05-07T11:52:21;7.07;;;5.40;;
50102;SDS011;35993;52.604;10.078;2023-05-07T11:54:49;8.32;;;6.32;;
50102;SDS011;35993;52.604;10.078;2023-05-07T11:57:18;10.65;;;5.88;;
50102;SDS011;35993;52.604;10.078;2023-05-07T11:59:45;7.22;;;5.97;;
50102;SDS011;35993;52.604;10.078;2023-05-07T12:02:13;6.68;;;5.25;;
50102;SDS011;35993;52.604;10.078;2023-05-07T12:04:39;9.02;;;5.50;;
50102;SDS011;35993;52.604;10.078;2023-05-07T12:07:05;7.53;;;5.68;;
50102;SDS011;35993;52.604;10.078;2023-05-07T12:09:32;7.30;;;5.68;;
50102;SDS011;35993;52.604;10.078;2023-05-07T12:12:03;7.10;;;6.40;;
50102;SDS011;35993;52.604;10.078;2023-05-07T12:14:29;9.02;;;6.13;;
50102;SDS011;35993;52.604;10.078;2023-05-07T12:16:55;7.68;;;5.93;;
50102;SDS011;35993;52.604;10.078;2023-05-07T12:19:21;8.73;;;6.15;;
50102;SDS011;35993;52.604;10.078;2023-05-07T12:21:47;7.40;;;5.80;;
50102;SDS011;35993;52.604;10.078;2023-05-07T12:24:16;7.70;;;6.03;;
50102;SDS011;35993;52.604;10.078;2023-05-07T12:26:43;7.30;;;5.80;;
50102;SDS011;35993;52.604;10.078;2023-05-07T12:29:08;7.57;;;5.88;;
50102;SDS011;35993;52.604;10.078;2023-05-07T12:31:34;8.82;;;6.10;;
50102;SDS011;35993;52.604;10.078;2023-05-07T12:34:00;9.30;;;6.53;;
50102;SDS011;35993;52.604;10.078;2023-05-07T12:36:25;8.13;;;6.07;;
50102;SDS011;35993;52.604;10.078;2023-05-07T12:38:51;7.90;;;5.95;;
50102;SDS011;35993;52.604;10.078;2023-05-07T12:41:17;7.70;;;5.90;;
50102;SDS011;35993;52.604;10.078;2023-05-07T12:43:43;7.55;;;5.75;;
50102;SDS011;35993;52.604;10.078;2023-05-07T12:46:09;8.70;;;5.65;;
50102;SDS011;35993;52.604;10.078;2023-05-07T12:48:36;7.80;;;5.78;;
50102;SDS011;35993;52.604;10.078;2023-05-07T12:51:02;7.40;;;5.45;;
50102;SDS011;35993;52.604;10.078;2023-05-07T12:53:30;5.55;;;4.80;;
50102;SDS011;35993;52.604;10.078;2023-05-07T12:55:57;8.10;;;5.68;;
50102;SDS011;35993;52.604;10.078;2023-05-07T12:58:28;6.70;;;5.18;;
50102;SDS011;35993;52.604;10.078;2023-05-07T13:00:56;7.60;;;5.57;;
50102;SDS011;35993;52.604;10.078;2023-05-07T13:03:29;7.47;;;4.78;;
50102;SDS011;35993;52.604;10.078;2023-05-07T13:06:00;7.10;;;4.70;;
50102;SDS011;35993;52.604;10.078;2023-05-07T13:08:28;6.38;;;4.78;;
50102;SDS011;35993;52.604;10.078;2023-05-07T13:10:59;6.68;;;5.05;;
50102;SDS011;35993;52.604;10.078;2023-05-07T13:13:32;6.57;;;4.60;;
50102;SDS011;35993;52.604;10.078;2023-05-07T13:15:58;8.70;;;4.43;;
50102;SDS011;35993;52.604;10.078;2023-05-07T13:18:25;7.38;;;4.82;;
50102;SDS011;35993;52.604;10.078;2023-05-07T13:20:52;8.82;;;5.22;;
50102;SDS011;35993;52.604;10.078;2023-05-07T13:23:18;7.50;;;5.20;;
50102;SDS011;35993;52.604;10.078;2023-05-07T13:25:43;6.63;;;4.72;;
50102;SDS011;35993;52.604;10.078;2023-05-07T13:28:09;5.88;;;4.50;;
50102;SDS011;35993;52.604;10.078;2023-05-07T13:30:35;6.10;;;4.57;;
50102;SDS011;35993;52.604;10.078;2023-05-07T13:33:00;6.05;;;4.55;;
50102;SDS011;35993;52.604;10.078;2023-05-07T13:35:26;7.97;;;4.93;;
50102;SDS011;35993;52.604;10.078;2023-05-07T13:37:52;6.40;;;4.65;;
50102;SDS011;35993;52.604;10.078;2023-05-07T13:40:18;6.00;;;4.57;;
50102;SDS011;35993;52.604;10.078;2023-05-07T13:42:44;6.82;;;4.35;;
50102;SDS011;35993;52.604;10.078;2023-05-07T13:45:10;5.75;;;4.38;;
50102;SDS011;35993;52.604;10.078;2023-05-07T13:47:42;6.70;;;4.70;;
50102;SDS011;35993;52.604;10.078;2023-05-07T13:50:08;6.88;;;4.40;;
50102;SDS011;35993;52.604;10.078;2023-05-07T13:52:34;7.18;;;4.35;;
50102;SDS011;35993;52.604;10.078;2023-05-07T13:55:00;6.95;;;4.50;;
50102;SDS011;35993;52.604;10.078;2023-05-07T13:57:26;5.88;;;4.45;;
50102;SDS011;35993;52.604;10.078;2023-05-07T13:59:51;6.50;;;4.85;;
50102;SDS011;35993;52.604;10.078;2023-05-07T14:02:17;7.10;;;4.43;;
50102;SDS011;35993;52.604;10.078;2023-05-07T14:04:42;7.07;;;5.28;;
50102;SDS011;35993;52.604;10.078;2023-05-07T14:07:08;6.45;;;4.50;;
50102;SDS011;35993;52.604;10.078;2023-05-07T14:09:33;6.43;;;4.22;;
50102;SDS011;35993;52.604;10.078;2023-05-07T14:11:59;5.60;;;4.70;;
50102;SDS011;35993;52.604;10.078;2023-05-07T14:14:25;6.43;;;4.28;;
50102;SDS011;35993;52.604;10.078;2023-05-07T14:16:50;5.72;;;4.35;;
50102;SDS011;35993;52.604;10.078;2023-05-07T14:19:16;5.78;;;4.40;;
50102;SDS011;35993;52.604;10.078;2023-05-07T14:21:41;5.97;;;4.38;;
50102;SDS011;35993;52.604;10.078;2023-05-07T14:24:07;6.10;;;4.53;;
50102;SDS011;35993;52.604;10.078;2023-05-07T14:26:33;5.50;;;4.13;;
50102;SDS011;35993;52.604;10.078;2023-05-07T14:28:59;6.32;;;4.25;;
50102;SDS011;35993;52.604;10.078;2023-05-07T14:31:25;7.38;;;4.13;;
50102;SDS011;35993;52.604;10.078;2023-05-07T14:33:51;6.35;;;4.63;;
50102;SDS011;35993;52.604;10.078;2023-05-07T14:36:17;6.10;;;4.07;;
50102;SDS011;35993;52.604;10.078;2023-05-07T14:38:45;4.88;;;3.90;;
50102;SDS011;35993;52.604;10.078;2023-05-07T14:41:11;6.18;;;4.20;;
50102;SDS011;35993;52.604;10.078;2023-05-07T14:43:37;5.60;;;4.25;;
50102;SDS011;35993;52.604;10.078;2023-05-07T14:46:02;5.32;;;4.07;;